Main page
METAR-TAF:

METAR-TAF

Airports :

Cape Girardeau Regional Airport

Cape Girardeau, Missouri, United States

latitude: 37-13-32N, longitude: 089-34-42W, elevation: 341 ft

Current weather observation

The report was made 25 minutes ago, at 05:53 UTC
Wind 3 mph from the Southeast
Temperature 72°F
Humidity 100%
Pressure 30.23 in. Hg
Visibility: 10 miles
Clear sky

METAR: KCGI 200553Z AUTO 13003KT 10SM CLR 22/22 A3023 RMK AO2 SLP234 T02220217 10289 20222 403110222 50002

Time: 01:18 (06:18 UTC)

Forecast

The report was made 58 minutes ago, at 05:20 UTC
Forecast valid from 20 at 06 UTC to 21 at 06 UTC
Wind 0 mph from the North
Visibility: 6 miles
Scattered clouds at a height of 6000 ft
Temporary
from 20 at 08 UTC to 20 at 12 UTC
Visibility: 5 miles
mist
From 20 at 1500 UTC
Wind 7 mph from the Southeast
Visibility: 6 miles
Few clouds at a height of 25000 ft

TAF: KCGI 200520Z 2006/2106 00000KT P6SM SCT060 TEMPO 2008/2012 5SM BR FM201500 13006KT P6SM FEW250

Weather observations and forecasts of more than 4000 airports (METAR and TAF reports).

The available stations are represented by yellow and red dots on the map.

Hover mouse over dot to see the name of the station.

Then click to see weather observations and forecasts.

To change the map : click on the green buttons with a black cross to zoom in, on the green button with a dash to zoom out, or on the green arrows for adjacent maps.


METAR-TAF: